Time;durP1;ratioP1;P1;durP2;ratioP2;P2;SDS_P1;SDS_P2;PMS_P1;PMS_P2;Temp;Humidity;BMP_temperature;BMP_pressure;BME280_temperature;BME280_humidity;BME280_pressure;Samples;Min_cycle;Max_cycle;Signal;HPM_P1;HPM_P2
2021/09/21 00:00:42;;;;;;;13.55;8.68;;;;;;;12.19;94.43;96495.13;1049021;28;20040;-69
2021/09/21 00:01:31;;;;;;;12.57;9.50;;;;;;;12.20;94.65;96494.84;1050041;28;20039;-69
2021/09/21 00:02:20;;;;;;;13.88;9.35;;;;;;;12.22;94.44;96498.03;1053437;28;20098;-69
2021/09/21 00:03:09;;;;;;;11.98;8.57;;;;;;;12.21;94.80;96498.31;1053723;28;20099;-69
2021/09/21 00:03:58;;;;;;;14.10;8.85;;;;;;;12.24;94.69;96495.13;1053407;28;20100;-69
2021/09/21 00:04:29;;;;;;;12.87;8.93;;;;;;;12.25;94.54;96496.72;1053437;28;20020;-69
2021/09/21 00:05:18;;;;;;;11.90;9.23;;;;;;;12.26;94.41;96492.16;1053496;28;20487;-69
2021/09/21 00:05:48;;;;;;;15.53;9.73;;;;;;;12.20;94.72;96494.84;1048948;28;20017;-69
2021/09/21 00:06:37;;;;;;;11.45;9.05;;;;;;;12.15;95.15;96494.84;1049042;28;20078;-69
2021/09/21 00:07:07;;;;;;;20.83;9.57;;;;;;;12.13;95.62;96497.00;1048978;28;20016;-69
2021/09/21 00:07:38;;;;;;;12.07;9.20;;;;;;;12.08;95.45;96499.66;1051712;28;20012;-69
2021/09/21 00:08:27;;;;;;;13.75;8.73;;;;;;;12.15;95.77;96499.38;1053456;28;20034;-69
2021/09/21 00:08:58;;;;;;;13.50;9.50;;;;;;;12.17;95.62;96497.25;1053454;28;20501;-69
2021/09/21 00:09:46;;;;;;;15.18;9.10;;;;;;;12.13;95.39;96496.16;1053454;28;20035;-69
2021/09/21 00:10:17;;;;;;;13.53;9.70;;;;;;;12.11;95.95;96492.94;1053391;28;20396;-69
2021/09/21 00:10:47;;;;;;;10.70;8.43;;;;;;;12.12;95.95;96499.91;1053444;28;20464;-69
2021/09/21 00:11:18;;;;;;;11.20;8.80;;;;;;;12.13;95.18;96494.31;1053439;28;20372;-69
2021/09/21 00:12:07;;;;;;;13.80;8.93;;;;;;;12.13;94.34;96493.47;1054194;28;20053;-69
2021/09/21 00:12:56;;;;;;;12.93;9.20;;;;;;;12.16;94.32;96490.28;1054191;28;20078;-69
2021/09/21 00:13:44;;;;;;;12.60;8.77;;;;;;;12.12;94.21;96494.56;1053482;28;20438;-69
2021/09/21 00:14:33;;;;;;;11.52;8.80;;;;;;;12.13;94.35;96497.00;1053469;28;20207;-69
2021/09/21 00:15:22;;;;;;;12.38;9.20;;;;;;;12.12;95.80;96498.03;1053435;28;20404;-69
2021/09/21 00:16:11;;;;;;;14.00;8.75;;;;;;;12.15;95.35;96499.38;1048915;28;20091;-69
2021/09/21 00:16:42;;;;;;;12.47;9.20;;;;;;;12.13;95.11;96497.00;1048933;28;20384;-69
2021/09/21 00:17:30;;;;;;;11.57;8.73;;;;;;;12.12;94.03;96495.34;1049904;28;20024;-69
2021/09/21 00:18:01;;;;;;;10.73;8.20;;;;;;;12.11;93.98;96499.13;1053198;28;20012;-69
2021/09/21 00:18:50;;;;;;;13.35;8.43;;;;;;;12.12;94.31;96502.59;1053458;28;20030;-69
2021/09/21 00:19:20;;;;;;;10.83;8.47;;;;;;;12.18;94.68;96506.88;1053379;28;20024;-69
2021/09/21 00:19:51;;;;;;;13.07;9.33;;;;;;;12.20;94.57;96502.06;1053461;28;20415;-69
2021/09/21 00:20:21;;;;;;;11.50;9.00;;;;;;;12.19;94.68;96503.94;1053317;28;20016;-69
2021/09/21 00:21:10;;;;;;;11.02;8.32;;;;;;;12.21;94.66;96511.72;1053485;28;20074;-69
2021/09/21 00:22:00;;;;;;;11.85;8.30;;;;;;;12.21;93.98;96504.47;1053486;28;20046;-69
2021/09/21 00:22:48;;;;;;;13.30;8.65;;;;;;;12.21;94.83;96504.47;1053361;28;20038;-69
2021/09/21 00:23:19;;;;;;;10.97;8.27;;;;;;;12.23;95.12;96507.72;1057136;28;20023;-69
2021/09/21 00:23:49;;;;;;;10.50;8.13;;;;;;;12.27;94.48;96502.59;1057642;28;20020;-69
2021/09/21 00:24:20;;;;;;;11.67;8.47;;;;;;;12.29;94.50;96505.03;1057504;28;20030;-69
2021/09/21 00:24:50;;;;;;;14.70;8.73;;;;;;;12.31;94.75;96503.69;1057637;28;20027;-69
2021/09/21 00:25:21;;;;;;;13.70;8.80;;;;;;;12.32;94.46;96505.28;1053007;28;20038;-69
2021/09/21 00:25:51;;;;;;;12.17;8.90;;;;;;;12.33;94.05;96501.53;1053066;28;20016;-69
2021/09/21 00:26:21;;;;;;;12.50;9.03;;;;;;;12.37;93.63;96502.59;1048923;28;20024;-69
2021/09/21 00:26:52;;;;;;;15.70;8.70;;;;;;;12.39;93.53;96505.03;1048814;28;20028;-69
2021/09/21 00:27:22;;;;;;;10.27;8.40;;;;;;;12.33;93.59;96498.84;1052975;28;20020;-69
2021/09/21 00:27:53;;;;;;;10.17;7.87;;;;;;;12.38;93.59;96504.19;1053036;28;20016;-69
2021/09/21 00:28:42;;;;;;;12.07;8.68;;;;;;;12.38;93.51;96496.16;1057572;28;20035;-69
2021/09/21 00:29:12;;;;;;;11.27;8.90;;;;;;;12.42;92.88;96502.59;1057597;28;20023;-69
2021/09/21 00:30:03;;;;;;;11.60;8.82;;;;;;;12.42;91.76;96493.75;1057635;28;20070;-69
2021/09/21 00:30:53;;;;;;;11.98;8.60;;;;;;;12.42;92.69;96499.91;1057622;28;20058;-69
2021/09/21 00:31:23;;;;;;;11.10;8.23;;;;;;;12.43;92.56;96500.72;1057447;28;20023;-69
2021/09/21 00:32:25;;;;;;;12.20;8.68;;;;;;;12.40;92.25;96502.06;1057585;28;20107;-69
2021/09/21 00:33:06;;;;;;;12.55;8.07;;;;;;;12.40;91.97;96507.44;1052932;28;20020;-69
2021/09/21 00:33:51;;;;;;;13.40;8.32;;;;;;;12.42;91.76;96501.78;1053000;28;20118;-69
2021/09/21 00:34:42;;;;;;;11.18;7.88;;;;;;;12.36;92.65;96505.56;1054867;28;20035;-69
2021/09/21 00:35:12;;;;;;;12.50;8.68;;;;;;;12.32;93.13;96505.28;1057500;28;20019;-69
2021/09/21 00:36:01;;;;;;;11.40;8.35;;;;;;;12.27;93.67;96497.25;1057623;28;20034;-69
2021/09/21 00:36:50;;;;;;;11.30;8.80;;;;;;;12.23;94.80;96502.34;1057516;28;20035;-69
2021/09/21 00:37:39;;;;;;;9.20;7.57;;;;;;;12.20;95.50;96505.56;1057006;28;20038;-69
2021/09/21 00:38:28;;;;;;;12.25;8.80;;;;;;;12.22;96.08;96497.25;1053377;28;20031;-69
2021/09/21 00:39:17;;;;;;;11.27;8.05;;;;;;;12.19;96.10;96501.28;1048862;28;20095;-69
2021/09/21 00:39:48;;;;;;;10.87;8.37;;;;;;;12.19;96.42;96500.47;1048773;28;20401;-69
2021/09/21 00:40:37;;;;;;;12.77;8.55;;;;;;;12.13;95.86;96509.56;1049895;28;20178;-68
2021/09/21 00:41:07;;;;;;;13.07;9.47;;;;;;;12.11;95.83;96506.34;1053301;28;20019;-69
2021/09/21 00:41:56;;;;;;;9.77;7.95;;;;;;;12.03;95.64;96505.00;1048800;28;20146;-69
2021/09/21 00:42:28;;;;;;;11.83;8.47;;;;;;;12.10;95.33;96507.44;1048747;28;20028;-68
2021/09/21 00:43:02;;;;;;;12.43;8.35;;;;;;;12.09;94.38;96506.63;1048842;28;20020;-69
2021/09/21 00:43:32;;;;;;;11.25;9.10;;;;;;;12.11;92.68;96501.78;1052272;28;20074;-69
2021/09/21 00:44:04;;;;;;;12.73;8.00;;;;;;;12.15;92.19;96507.44;1053253;28;20077;-69
2021/09/21 00:44:35;;;;;;;11.27;8.38;;;;;;;12.17;92.04;96497.25;1048734;28;20524;-69
2021/09/21 00:45:24;;;;;;;10.18;7.93;;;;;;;12.15;92.79;96510.09;1048841;28;20373;-68
2021/09/21 00:45:54;;;;;;;10.57;8.07;;;;;;;12.18;92.75;96506.88;1048761;28;20017;-69
2021/09/21 00:46:43;;;;;;;11.05;8.60;;;;;;;12.07;94.57;96505.25;1053352;28;20458;-69
2021/09/21 00:47:32;;;;;;;13.05;8.57;;;;;;;12.10;94.16;96502.88;1053236;28;20066;-69
2021/09/21 00:48:03;;;;;;;11.30;8.73;;;;;;;12.15;93.87;96507.44;1053277;28;20035;-70
2021/09/21 00:48:33;;;;;;;11.63;8.83;;;;;;;12.18;93.02;96504.19;1048772;28;20028;-69
2021/09/21 00:49:04;;;;;;;10.80;8.60;;;;;;;12.20;92.62;96504.75;1048716;28;20033;-69
2021/09/21 00:49:34;;;;;;;11.23;8.20;;;;;;;12.23;92.11;96505.03;1048717;28;20024;-69
2021/09/21 00:50:05;;;;;;;11.07;8.77;;;;;;;12.20;91.79;96494.84;1048809;28;20016;-69
2021/09/21 00:50:54;;;;;;;10.95;8.73;;;;;;;12.20;91.76;96499.41;1053370;28;20043;-69
2021/09/21 00:51:24;;;;;;;11.13;8.73;;;;;;;12.21;91.90;96495.63;1053242;28;20019;-70
2021/09/21 00:51:55;;;;;;;11.40;8.77;;;;;;;12.20;92.50;96507.44;1048637;28;20053;-69
2021/09/21 00:52:44;;;;;;;15.68;9.63;;;;;;;12.23;92.29;96498.84;1044695;28;20130;-69
2021/09/21 00:53:33;;;;;;;11.45;8.63;;;;;;;12.18;91.69;96502.34;1045725;28;20064;-69
2021/09/21 00:54:03;;;;;;;12.53;9.33;;;;;;;12.18;91.67;96505.03;1049860;28;20492;-69
2021/09/21 00:54:52;;;;;;;16.00;8.75;;;;;;;12.08;93.04;96498.81;1053307;28;20035;-69
2021/09/21 00:55:41;;;;;;;13.65;9.48;;;;;;;12.04;93.73;96497.78;1044441;28;20461;-69
2021/09/21 00:56:30;;;;;;;12.93;9.43;;;;;;;12.03;93.54;96496.16;1044725;28;20051;-69
2021/09/21 00:57:19;;;;;;;12.15;9.18;;;;;;;12.04;93.70;96495.09;1051638;28;20030;-69
2021/09/21 00:58:09;;;;;;;13.38;9.70;;;;;;;12.06;93.71;96500.97;1052753;28;20043;-69
2021/09/21 00:58:39;;;;;;;16.10;9.60;;;;;;;12.10;93.45;96502.06;1052667;28;20031;-69
2021/09/21 00:59:09;;;;;;;10.57;9.23;;;;;;;12.07;93.66;96502.59;1053281;28;20422;-69
2021/09/21 00:59:58;;;;;;;12.23;8.73;;;;;;;12.07;93.87;96503.38;1053246;28;20066;-69
2021/09/21 01:00:29;;;;;;;11.53;9.37;;;;;;;12.08;93.84;96498.81;1053220;28;20031;-69
2021/09/21 01:00:59;;;;;;;12.23;9.27;;;;;;;12.03;94.19;96494.31;1053248;28;20028;-70
2021/09/21 01:01:30;;;;;;;11.33;9.10;;;;;;;12.04;94.97;96497.78;1053221;28;20031;-69
2021/09/21 01:02:00;;;;;;;11.87;9.33;;;;;;;12.08;94.54;96498.81;1053208;28;20381;-69
2021/09/21 01:02:30;;;;;;;15.73;9.97;;;;;;;12.02;95.25;96503.38;1053061;28;20024;-69
2021/09/21 01:03:19;;;;;;;12.73;9.80;;;;;;;11.99;95.25;96497.78;1053213;28;20463;-69
2021/09/21 01:03:50;;;;;;;13.13;9.30;;;;;;;12.00;95.68;96499.38;1053152;28;20019;-69
2021/09/21 01:04:20;;;;;;;12.57;9.47;;;;;;;11.97;95.90;96504.19;1048731;28;20021;-69
2021/09/21 01:05:10;;;;;;;12.50;8.88;;;;;;;11.96;96.27;96497.22;1048814;28;20507;-69
2021/09/21 01:05:40;;;;;;;12.53;9.10;;;;;;;11.96;96.15;96501.78;1048740;28;20020;-69
2021/09/21 01:06:10;;;;;;;12.80;9.50;;;;;;;11.99;96.07;96498.56;1047166;28;20444;-69
2021/09/21 01:06:41;;;;;;;11.93;9.67;;;;;;;11.98;96.43;96505.00;1048707;28;20028;-69
2021/09/21 01:07:30;;;;;;;11.98;9.25;;;;;;;11.95;95.81;96503.66;1044644;28;20036;-69
2021/09/21 01:08:28;;;;;;;13.40;8.93;;;;;;;12.01;95.60;96503.66;1044543;28;20032;-69
2021/09/21 01:08:58;;;;;;;12.30;9.88;;;;;;;11.96;95.87;96507.94;1042447;28;20085;-69
2021/09/21 01:09:47;;;;;;;11.93;9.13;;;;;;;11.99;96.05;96508.50;1046689;28;20116;-69
2021/09/21 01:10:23;;;;;;;12.00;9.33;;;;;;;12.00;96.35;96502.06;1048629;28;20021;-69
2021/09/21 01:11:12;;;;;;;14.20;9.75;;;;;;;12.02;96.51;96508.75;1048723;28;20040;-69
2021/09/21 01:11:46;;;;;;;12.83;9.97;;;;;;;12.02;96.44;96506.06;1044616;28;20489;-69
2021/09/21 01:12:17;;;;;;;14.82;9.90;;;;;;;12.04;96.54;96508.50;1044482;28;20029;-69
2021/09/21 01:12:47;;;;;;;13.00;9.43;;;;;;;12.04;96.38;96503.13;1047847;28;20025;-69
2021/09/21 01:13:18;;;;;;;14.00;9.77;;;;;;;12.05;96.41;96496.69;1049390;28;20024;-69
2021/09/21 01:14:06;;;;;;;14.48;9.95;;;;;;;12.03;96.99;96507.69;1048763;28;20388;-69
2021/09/21 01:14:56;;;;;;;14.55;10.05;;;;;;;11.95;97.57;96500.97;1048714;28;20032;-69
2021/09/21 01:15:26;;;;;;;13.63;9.57;;;;;;;11.90;98.38;96503.66;1045424;28;20108;-69
2021/09/21 01:15:57;;;;;;;14.57;9.67;;;;;;;11.91;98.75;96499.09;1048668;28;20039;-69
2021/09/21 01:16:28;;;;;;;13.17;9.97;;;;;;;11.94;98.17;96498.56;1048629;28;20078;-69
2021/09/21 01:17:20;;;;;;;13.70;10.27;;;;;;;11.90;98.20;96503.66;1051712;28;20281;-69
2021/09/21 01:18:09;;;;;;;15.30;9.70;;;;;;;11.91;97.79;96502.56;1053173;28;20138;-69
2021/09/21 01:18:58;;;;;;;12.20;9.88;;;;;;;11.94;97.76;96502.03;1048733;28;20110;-69
2021/09/21 01:19:30;;;;;;;15.03;9.63;;;;;;;11.96;97.76;96505.25;1044458;28;20461;-69
2021/09/21 01:20:00;;;;;;;12.18;9.88;;;;;;;11.92;97.97;96506.84;1044491;28;20024;-69
2021/09/21 01:20:31;;;;;;;13.20;9.53;;;;;;;11.92;97.45;96508.72;1042948;28;20470;-69
2021/09/21 01:21:03;;;;;;;15.73;9.97;;;;;;;11.89;96.71;96502.03;1044689;28;20079;-69
2021/09/21 01:21:33;;;;;;;12.85;9.75;;;;;;;11.93;96.53;96516.50;1048610;28;20025;-69
2021/09/21 01:22:04;;;;;;;14.40;9.87;;;;;;;11.89;96.97;96503.91;1048998;28;20025;-68
2021/09/21 01:22:52;;;;;;;13.82;9.63;;;;;;;11.93;96.58;96505.00;1053105;28;20093;-69
2021/09/21 01:23:46;;;;;;;14.30;9.25;;;;;;;11.94;97.21;96510.09;1053181;28;20042;-69
2021/09/21 01:24:17;;;;;;;16.58;10.13;;;;;;;11.96;97.48;96501.78;1053100;28;20035;-69
2021/09/21 01:25:07;;;;;;;15.55;9.88;;;;;;;11.97;97.00;96503.38;1053117;28;20058;-69
2021/09/21 01:25:37;;;;;;;13.43;9.80;;;;;;;11.99;97.43;96508.50;1055818;28;20168;-69
2021/09/21 01:26:07;;;;;;;13.07;9.30;;;;;;;11.97;97.40;96506.84;1057397;28;20028;-69
2021/09/21 01:26:57;;;;;;;15.52;9.77;;;;;;;11.99;97.60;96511.97;1057390;28;20023;-68
2021/09/21 01:27:46;;;;;;;13.80;9.00;;;;;;;11.99;97.78;96505.81;1057403;28;20054;-69
2021/09/21 01:28:16;;;;;;;13.30;10.30;;;;;;;12.03;97.13;96507.69;1057406;28;20460;-69
2021/09/21 01:29:05;;;;;;;12.63;9.32;;;;;;;12.06;97.46;96511.69;1057374;28;20108;-69
2021/09/21 01:29:54;;;;;;;14.88;10.35;;;;;;;11.99;97.79;96498.56;1057392;28;20080;-69
2021/09/21 01:30:24;;;;;;;14.27;9.30;;;;;;;11.92;99.33;96506.84;1057225;28;20424;-69
2021/09/21 01:30:55;;;;;;;11.93;9.40;;;;;;;11.96;98.75;96509.81;1057333;28;20414;-69
2021/09/21 01:31:44;;;;;;;13.45;9.60;;;;;;;11.99;98.73;96498.56;1057353;28;20070;-69
2021/09/21 01:32:16;;;;;;;13.17;10.40;;;;;;;12.01;98.02;96509.00;1057356;28;20464;-69
2021/09/21 01:32:47;;;;;;;13.68;10.13;;;;;;;12.01;98.33;96498.31;1057367;28;20027;-69
2021/09/21 01:33:19;;;;;;;12.35;9.68;;;;;;;11.98;98.90;96502.31;1052754;28;20498;-69
2021/09/21 01:34:08;;;;;;;13.40;9.98;;;;;;;11.97;98.68;96508.72;1052948;28;20146;-69
2021/09/21 01:35:00;;;;;;;17.92;10.32;;;;;;;11.98;98.99;96502.31;1054147;28;20102;-69
2021/09/21 01:35:51;;;;;;;11.73;9.10;;;;;;;12.00;98.42;96502.06;1057258;28;20039;-68
2021/09/21 01:36:22;;;;;;;11.90;10.05;;;;;;;11.93;98.77;96505.00;1057354;28;20472;-68
2021/09/21 01:36:52;;;;;;;12.65;9.65;;;;;;;11.96;98.97;96502.56;1057284;28;20460;-69
2021/09/21 01:37:24;;;;;;;12.37;9.47;;;;;;;12.00;98.75;96510.88;1057336;28;20015;-69
2021/09/21 01:38:13;;;;;;;13.57;10.15;;;;;;;11.98;98.84;96513.03;1057476;28;20434;-69
2021/09/21 01:39:02;;;;;;;15.40;9.77;;;;;;;11.99;98.57;96513.84;1048699;28;20090;-69
2021/09/21 01:39:33;;;;;;;13.83;9.73;;;;;;;12.02;98.45;96511.41;1044362;28;20017;-69
2021/09/21 01:40:22;;;;;;;12.95;9.57;;;;;;;12.01;98.22;96514.38;1046270;28;20036;-69
2021/09/21 01:41:11;;;;;;;12.30;9.23;;;;;;;11.99;98.75;96511.16;1046023;28;20040;-69
2021/09/21 01:42:00;;;;;;;14.80;9.63;;;;;;;12.01;98.60;96506.34;1048562;28;20039;-69
2021/09/21 01:42:30;;;;;;;12.80;9.73;;;;;;;12.02;97.97;96508.75;1050567;28;20027;-69
2021/09/21 01:43:00;;;;;;;12.87;9.43;;;;;;;12.03;98.57;96515.72;1053092;28;20469;-69
2021/09/21 01:43:31;;;;;;;14.37;9.87;;;;;;;12.02;98.27;96515.97;1052980;28;20028;-69
2021/09/21 01:44:01;;;;;;;12.00;9.97;;;;;;;12.06;97.70;96511.69;1052951;28;20016;-69
2021/09/21 01:44:50;;;;;;;14.88;10.15;;;;;;;12.06;96.89;96509.03;1053115;28;20043;-69
2021/09/21 01:45:39;;;;;;;12.45;9.85;;;;;;;11.96;96.62;96513.28;1052841;28;20491;-69
2021/09/21 01:46:28;;;;;;;13.93;9.82;;;;;;;11.91;96.78;96512.47;1053124;28;20035;-69
2021/09/21 01:47:20;;;;;;;12.88;9.60;;;;;;;11.88;96.92;96513.03;1053146;28;20081;-69
2021/09/21 01:47:50;;;;;;;14.23;10.20;;;;;;;11.92;97.25;96512.22;1044244;28;20063;-69
2021/09/21 01:48:21;;;;;;;12.97;10.10;;;;;;;11.96;96.89;96521.31;1044444;28;20067;-69
2021/09/21 01:48:51;;;;;;;12.57;9.53;;;;;;;11.99;97.00;96516.53;1044400;28;20025;-69
2021/09/21 01:49:53;;;;;;;18.65;9.27;;;;;;;12.05;96.43;96518.94;1045999;28;20084;-69
2021/09/21 01:50:38;;;;;;;16.55;10.85;;;;;;;11.97;96.26;96517.56;1048547;28;20012;-69
2021/09/21 01:51:13;;;;;;;12.65;9.98;;;;;;;11.94;95.30;96520.00;1046568;28;20025;-69
2021/09/21 01:52:13;;;;;;;12.98;9.98;;;;;;;11.98;95.45;96523.75;1044581;28;20513;-69
2021/09/21 01:54:48;;;;;;;12.80;9.18;;;;;;;11.97;94.35;96522.94;1041689;28;20485;-69
2021/09/21 01:59:22;;;;;;;15.55;9.85;;;;;;;11.97;95.61;96528.28;1045001;28;20032;-69
2021/09/21 01:59:52;;;;;;;12.83;9.67;;;;;;;12.04;94.57;96527.25;1044126;28;20040;-69
2021/09/21 02:00:41;;;;;;;13.93;9.95;;;;;;;12.06;94.45;96530.44;1044604;28;20059;-69
2021/09/21 02:01:12;;;;;;;15.77;9.70;;;;;;;12.06;93.47;96530.44;1044648;28;20404;-69
2021/09/21 02:02:01;;;;;;;14.32;9.90;;;;;;;12.03;93.08;96523.78;1044720;28;20055;-69
2021/09/21 02:02:31;;;;;;;12.00;8.90;;;;;;;11.99;93.06;96525.38;1039871;28;20017;-69
2021/09/21 02:03:03;;;;;;;13.67;9.50;;;;;;;11.93;93.40;96521.88;1040308;28;20021;-68
2021/09/21 02:03:34;;;;;;;13.98;9.70;;;;;;;11.90;94.52;96521.59;1040251;28;20377;-69
2021/09/21 02:04:23;;;;;;;14.07;9.70;;;;;;;11.91;93.23;96526.66;1043156;28;20044;-69
2021/09/21 02:04:54;;;;;;;12.83;9.33;;;;;;;11.89;93.13;96517.31;1044650;28;20044;-69
2021/09/21 02:05:24;;;;;;;14.50;10.10;;;;;;;11.92;93.35;96516.75;1044686;28;20047;-70
2021/09/21 02:05:55;;;;;;;13.17;9.53;;;;;;;11.93;93.37;96513.03;1044602;28;20021;-69
2021/09/21 02:06:44;;;;;;;13.68;9.35;;;;;;;11.94;93.87;96514.63;1044685;28;20047;-69
2021/09/21 02:07:14;;;;;;;14.97;9.83;;;;;;;11.99;93.75;96516.53;1044625;28;20025;-69
2021/09/21 02:08:04;;;;;;;13.65;9.27;;;;;;;11.94;93.02;96515.44;1044687;28;20409;-69
2021/09/21 02:08:34;;;;;;;11.87;9.30;;;;;;;11.94;93.20;96520.78;1044656;28;20028;-69
2021/09/21 02:09:10;;;;;;;12.57;9.00;;;;;;;11.96;93.32;96515.16;1044231;28;20017;-69
2021/09/21 02:10:01;;;;;;;13.95;9.77;;;;;;;11.92;94.74;96522.91;1043974;28;20388;-69
2021/09/21 02:10:50;;;;;;;14.02;9.66;;;;;;;11.90;94.72;96526.94;1044415;28;20079;-68
2021/09/21 02:11:40;;;;;;;12.95;9.70;;;;;;;11.86;93.43;96523.97;1044871;28;20106;-68
2021/09/21 02:12:10;;;;;;;15.50;9.15;;;;;;;11.84;93.43;96523.47;1044107;28;20079;-69
2021/09/21 02:12:59;;;;;;;11.68;8.60;;;;;;;11.84;94.06;96525.34;1044254;28;20116;-69
2021/09/21 02:13:30;;;;;;;13.57;9.40;;;;;;;11.78;96.66;96519.13;1044277;28;20103;-69
2021/09/21 02:14:00;;;;;;;14.57;9.47;;;;;;;11.73;98.79;96527.16;1042768;28;20014;-69
2021/09/21 02:14:50;;;;;;;12.20;9.43;;;;;;;11.75;99.11;96526.88;1044290;28;20028;-69
2021/09/21 02:15:21;;;;;;;13.10;10.50;;;;;;;11.76;98.89;96526.59;1044280;28;20044;-69
2021/09/21 02:15:52;;;;;;;14.77;9.93;;;;;;;11.80;99.37;96516.19;1044522;28;20052;-68
2021/09/21 02:16:42;;;;;;;13.73;9.75;;;;;;;11.78;99.32;96515.66;1044278;28;20104;-69
2021/09/21 02:17:31;;;;;;;14.32;9.65;;;;;;;11.80;99.70;96511.63;1044378;28;20080;-69
2021/09/21 02:18:20;;;;;;;14.35;10.48;;;;;;;11.75;99.93;96508.13;1044618;28;20039;-69
2021/09/21 02:18:51;;;;;;;13.67;10.07;;;;;;;11.74;99.82;96510.00;1044563;28;20021;-69
2021/09/21 02:19:40;;;;;;;14.20;9.77;;;;;;;11.78;100.00;96511.09;1044305;28;20116;-69
2021/09/21 02:20:11;;;;;;;13.35;9.77;;;;;;;11.81;99.47;96518.59;1044273;28;20012;-69
2021/09/21 02:20:41;;;;;;;14.17;9.70;;;;;;;11.83;99.37;96508.47;1044381;28;20511;-69
2021/09/21 02:21:12;;;;;;;14.80;9.67;;;;;;;11.87;98.47;96516.75;1042814;28;20024;-69
2021/09/21 02:21:42;;;;;;;15.20;10.53;;;;;;;11.88;98.45;96521.06;1044337;28;20017;-69
2021/09/21 02:22:31;;;;;;;12.93;9.70;;;;;;;11.84;99.11;96518.09;1044278;28;20056;-68
2021/09/21 02:23:02;;;;;;;13.23;9.10;;;;;;;11.85;99.04;96529.63;1044448;28;20017;-68
2021/09/21 02:23:32;;;;;;;12.87;9.40;;;;;;;11.86;98.95;96534.69;1044498;28;20025;-69
2021/09/21 02:24:22;;;;;;;14.60;9.90;;;;;;;11.81;99.63;96537.34;1044622;28;20052;-69
2021/09/21 02:25:11;;;;;;;11.95;9.13;;;;;;;11.82;99.98;96536.28;1044616;28;20119;-69
2021/09/21 02:26:00;;;;;;;13.20;9.77;;;;;;;11.79;99.40;96541.34;1044608;28;20278;-69
2021/09/21 02:26:50;;;;;;;14.70;9.60;;;;;;;11.73;100.00;96535.19;1044643;28;20027;-68
2021/09/21 02:27:39;;;;;;;13.38;10.13;;;;;;;11.68;100.00;96537.84;1044591;28;20032;-69
2021/09/21 02:28:28;;;;;;;13.27;10.55;;;;;;;11.65;100.00;96536.50;1045991;28;20028;-69
2021/09/21 02:28:58;;;;;;;13.43;10.27;;;;;;;11.63;100.00;96529.81;1048644;28;20385;-69
2021/09/21 02:29:47;;;;;;;13.50;9.75;;;;;;;11.59;100.00;96534.88;1048751;28;20154;-69
2021/09/21 02:30:17;;;;;;;16.17;10.20;;;;;;;11.58;100.00;96529.78;1048271;28;20021;-69
2021/09/21 02:30:48;;;;;;;16.30;10.50;;;;;;;11.62;100.00;96529.00;1048401;28;20094;-69
2021/09/21 02:31:37;;;;;;;12.65;10.07;;;;;;;11.63;100.00;96529.81;1048406;28;20109;-69
2021/09/21 02:32:26;;;;;;;13.23;9.85;;;;;;;11.67;100.00;96528.22;1048731;28;20109;-69
2021/09/21 02:32:56;;;;;;;13.20;10.27;;;;;;;11.70;100.00;96533.81;1048720;28;20430;-69
2021/09/21 02:33:26;;;;;;;14.47;10.47;;;;;;;11.73;100.00;96537.06;1048509;28;20472;-69
2021/09/21 02:33:57;;;;;;;14.03;10.23;;;;;;;11.77;100.00;96532.75;1048682;28;20017;-69
2021/09/21 02:34:46;;;;;;;15.57;10.70;;;;;;;11.73;100.00;96535.19;1048649;28;20085;-69
2021/09/21 02:35:17;;;;;;;14.37;10.30;;;;;;;11.77;99.71;96538.13;1048563;28;20369;-69
2021/09/21 02:36:06;;;;;;;13.48;9.75;;;;;;;11.74;100.00;96536.78;1048712;28;20030;-69
2021/09/21 02:36:54;;;;;;;13.05;10.38;;;;;;;11.72;100.00;96533.59;1048730;28;20154;-69
2021/09/21 02:37:44;;;;;;;17.23;10.55;;;;;;;11.74;100.00;96534.09;1048687;28;20412;-69
2021/09/21 02:38:34;;;;;;;14.85;10.35;;;;;;;11.75;100.00;96529.56;1048684;28;20023;-69
2021/09/21 02:39:23;;;;;;;14.02;10.13;;;;;;;11.76;100.00;96531.16;1048398;28;20117;-69
2021/09/21 02:40:12;;;;;;;12.20;9.43;;;;;;;11.70;100.00;96527.66;1048364;28;20040;-69
2021/09/21 02:40:43;;;;;;;12.68;9.85;;;;;;;11.70;100.00;96525.00;1048377;28;20013;-69
2021/09/21 02:41:13;;;;;;;13.87;9.47;;;;;;;11.71;100.00;96532.75;1048620;28;20149;-69
2021/09/21 02:42:02;;;;;;;13.80;9.80;;;;;;;11.71;99.40;96523.91;1048688;28;20546;-69
2021/09/21 02:42:33;;;;;;;12.20;9.53;;;;;;;11.73;99.09;96529.84;1048543;28;20024;-69
2021/09/21 02:43:03;;;;;;;14.20;9.57;;;;;;;11.73;99.21;96521.78;1048260;28;20024;-69
2021/09/21 02:43:34;;;;;;;12.37;9.47;;;;;;;11.76;99.44;96528.47;1048338;28;20031;-69
2021/09/21 02:44:23;;;;;;;14.10;9.88;;;;;;;11.77;96.66;96530.88;1044411;28;20090;-69
2021/09/21 02:45:12;;;;;;;15.10;9.60;;;;;;;11.83;96.47;96537.91;1044576;28;20028;-68
2021/09/21 02:45:42;;;;;;;11.83;9.40;;;;;;;11.86;96.32;96541.94;1044520;28;20377;-69
2021/09/21 02:46:31;;;;;;;12.20;9.63;;;;;;;11.90;96.00;96535.78;1044545;28;20052;-71
2021/09/21 02:47:20;;;;;;;15.63;9.93;;;;;;;11.95;95.83;96540.34;1044612;28;20059;-69
2021/09/21 02:48:09;;;;;;;11.50;9.15;;;;;;;11.97;95.77;96541.69;1044542;28;20128;-69
2021/09/21 02:48:58;;;;;;;14.70;9.27;;;;;;;11.97;95.88;96541.69;1044431;28;20159;-69
2021/09/21 02:49:47;;;;;;;11.63;9.07;;;;;;;11.93;94.66;96542.50;1044107;28;20032;-69
2021/09/21 02:50:18;;;;;;;15.47;9.63;;;;;;;11.94;95.07;96546.78;1044139;28;20373;-69
2021/09/21 02:51:06;;;;;;;15.95;9.98;;;;;;;11.90;95.22;96554.53;1044142;28;20130;-69
2021/09/21 02:51:37;;;;;;;13.30;9.80;;;;;;;11.88;95.00;96548.66;1044851;28;20462;-69
2021/09/21 02:52:07;;;;;;;13.07;9.33;;;;;;;11.89;94.86;96544.91;1052769;28;20036;-69
2021/09/21 02:52:38;;;;;;;13.43;9.43;;;;;;;11.87;94.46;96546.22;1052675;28;20028;-69
2021/09/21 02:53:08;;;;;;;12.27;9.90;;;;;;;11.86;94.89;96550.75;1052818;28;20020;-69
2021/09/21 02:53:58;;;;;;;12.20;9.40;;;;;;;11.89;95.13;96555.59;1052919;28;20044;-69
2021/09/21 02:54:47;;;;;;;13.27;9.48;;;;;;;11.92;95.19;96552.38;1052855;28;20050;-69
2021/09/21 02:55:18;;;;;;;13.10;9.63;;;;;;;11.93;95.45;96555.91;1052876;28;20044;-70
2021/09/21 02:56:07;;;;;;;12.23;10.00;;;;;;;11.92;95.39;96555.06;1052844;28;20076;-69
2021/09/21 02:56:55;;;;;;;12.32;9.50;;;;;;;11.87;95.37;96552.38;1052915;28;20438;-69
2021/09/21 02:57:26;;;;;;;14.40;9.77;;;;;;;11.90;95.09;96551.84;1052835;28;20016;-69
2021/09/21 02:57:56;;;;;;;15.43;10.10;;;;;;;11.95;95.06;96559.91;1052890;28;20023;-69
2021/09/21 02:58:45;;;;;;;12.32;9.52;;;;;;;11.97;94.79;96557.75;1052891;28;20515;-69
2021/09/21 02:59:34;;;;;;;13.73;9.85;;;;;;;11.98;94.74;96561.25;1052927;28;20544;-69
2021/09/21 03:00:09;;;;;;;15.13;8.83;;;;;;;12.00;94.70;96563.66;1052805;28;20016;-69
2021/09/21 03:00:59;;;;;;;14.18;9.98;;;;;;;11.89;95.68;96560.97;1052866;28;20060;-69
2021/09/21 03:01:29;;;;;;;12.73;9.73;;;;;;;11.93;95.94;96562.06;1052833;28;20051;-69
2021/09/21 03:02:00;;;;;;;12.93;9.90;;;;;;;11.93;96.06;96558.56;1052919;28;20023;-69
2021/09/21 03:02:32;;;;;;;13.23;10.13;;;;;;;11.97;95.72;96554.28;1052848;28;20365;-69
2021/09/21 03:03:04;;;;;;;11.95;9.63;;;;;;;11.92;95.74;96564.97;1052816;28;20056;-69
2021/09/21 03:03:57;;;;;;;12.98;9.52;;;;;;;11.91;94.92;96561.50;1052703;28;20034;-69
2021/09/21 03:04:54;;;;;;;14.60;9.60;;;;;;;11.89;94.79;96558.28;1052733;28;20039;-69
2021/09/21 03:05:53;;;;;;;13.25;9.60;;;;;;;11.89;95.66;96560.16;1052890;28;20030;-68
2021/09/21 03:06:47;;;;;;;14.32;10.63;;;;;;;11.80;96.40;96565.19;1052915;28;20085;-69
2021/09/21 03:07:26;;;;;;;14.45;10.40;;;;;;;11.74;96.42;96555.53;1052818;28;20020;-69
2021/09/21 03:08:18;;;;;;;15.68;10.60;;;;;;;11.68;98.05;96560.06;1052904;28;20047;-68
2021/09/21 03:08:49;;;;;;;14.43;10.15;;;;;;;11.64;98.05;96552.81;1052745;28;20047;-69
2021/09/21 03:11:47;;;;;;;13.32;10.43;;;;;;;11.52;100.00;96557.59;1048198;28;20024;-69
2021/09/21 03:12:30;;;;;;;18.30;11.52;;;;;;;11.52;100.00;96555.72;1048260;28;20067;-69
2021/09/21 03:13:40;;;;;;;15.68;11.18;;;;;;;11.54;100.00;96560.81;1049527;28;20035;-69
2021/09/21 03:17:30;;;;;;;13.18;10.07;;;;;;;11.60;100.00;96560.56;1056914;28;20015;-69